WetterOnline ( https://www.wetteronline.at )

Wetter aktuell Düsseldorf

Aktuelles Wetter: Düsseldorf/Flughafen (41m)

6-stündlich | Neueste Meldungen
Ortszeit Temperatur Wetter
Fr, 14.06. 8:00 13.7° C leichter Regen
Fr, 14.06. 2:00 15.3° C wolkig
Do, 13.06. 20:00 18.7° C bewölkt
Do, 13.06. 14:00 17.1° C bewölkt
Do, 13.06. 8:00 11.7° C bedeckt
Do, 13.06. 2:00 9.5° C bedeckt
Mi, 12.06. 20:00 14.8° C bedeckt
Mi, 12.06. 14:00 15.9° C wolkig
Ortszeit Temperatur Wetter
Fr, 14.06. 10:00 15.6° C bedeckt
Fr, 14.06. 9:50 15.6° C bedeckt
Fr, 14.06. 9:40 15.7° C bedeckt
Fr, 14.06. 9:30 15.7° C bedeckt
Fr, 14.06. 9:20 15.7° C bedeckt
Fr, 14.06. 9:10 15.4° C bedeckt
Fr, 14.06. 9:00 14.7° C Regen
Fr, 14.06. 8:30 13.8° C leichter Regen
Fr, 14.06. 8:00 13.7° C leichter Regen
Fr, 14.06. 7:30 13.6° C leichter Regen
Fr, 14.06. 7:00 13.4° C leichter Regen
Fr, 14.06. 6:30 13.6° C leichter Regen
Ortszeit Relative Feuchte Sichtweite
Fr, 14.06. 8:00 83% 35 km
Fr, 14.06. 2:00 61% >70 km
Do, 13.06. 20:00 44% >70 km
Do, 13.06. 14:00 47% >70 km
Do, 13.06. 8:00 75% 40 km
Do, 13.06. 2:00 80% >70 km
Mi, 12.06. 20:00 55% 55 km
Mi, 12.06. 14:00 51% 50 km
Ortszeit Relative Feuchte Sichtweite
Fr, 14.06. 10:00 72% 65 km
Fr, 14.06. 9:50 72% -
Fr, 14.06. 9:40 73% -
Fr, 14.06. 9:30 73% 65 km
Fr, 14.06. 9:20 73% -
Fr, 14.06. 9:10 76% -
Fr, 14.06. 9:00 80% 45 km
Fr, 14.06. 8:30 84% 40 km
Fr, 14.06. 8:00 83% 35 km
Fr, 14.06. 7:30 80% 35 km
Fr, 14.06. 7:00 83% 35 km
Fr, 14.06. 6:30 78% 45 km
Ortszeit Niederschlagsmenge Niederschlagsart
Fr, 14.06. 8:00 0.4 l/m2 in 12 Std. Regen
Fr, 14.06. 2:00 0.0 l/m2 in 6 Std. -
Do, 13.06. 20:00 0.0 l/m2 in 12 Std. -
Do, 13.06. 14:00 0.0 l/m2 in 6 Std. -
Do, 13.06. 8:00 0.0 l/m2 in 12 Std. -
Do, 13.06. 2:00 0.0 l/m2 in 6 Std. -
Mi, 12.06. 20:00 0.1 l/m2 in 12 Std. -
Mi, 12.06. 14:00 0.1 l/m2 in 6 Std. Regen
Ortszeit Niederschlagsmenge Niederschlagsart
Fr, 14.06. 10:00 0.0 l/m2 in 1 Std. -
Fr, 14.06. 9:50 keine Meldung -
Fr, 14.06. 9:40 keine Meldung -
Fr, 14.06. 9:30 0.0 l/m2 in 30 Min -
Fr, 14.06. 9:20 keine Meldung -
Fr, 14.06. 9:10 keine Meldung -
Fr, 14.06. 9:00 0.1 l/m2 in 1 Std. Regen
Fr, 14.06. 8:30 0.1 l/m2 in 30 Min -
Fr, 14.06. 8:00 0.2 l/m2 in 1 Std. Regen
Fr, 14.06. 7:30 0.1 l/m2 in 30 Min -
Fr, 14.06. 7:00 <0.05 l/m2 in 1 Std. Regen
Fr, 14.06. 6:30 <0.05 l/m2 in 30 Min -
Ortszeit Stärke Spitze Richtung
km/h Bft. km/h Grad Sektor
Fr, 14.06. 8:00 13 3 35 160° S
Fr, 14.06. 2:00 13 3 24 150° SO
Do, 13.06. 20:00 18 3 32 170° S
Do, 13.06. 14:00 18 3 40 200° S
Do, 13.06. 8:00 9 2 15 170° S
Do, 13.06. 2:00 4 1 - 260° W
Mi, 12.06. 20:00 - - - - -
Mi, 12.06. 14:00 14 3 32 270° W
Ortszeit Stärke Spitze Richtung
km/h Bft. km/h Grad Sektor
Fr, 14.06. 10:00 22 4 36 170° S
Fr, 14.06. 9:50 22 4 - 170° S
Fr, 14.06. 9:40 22 4 - 160° S
Fr, 14.06. 9:30 14 3 25 160° S
Fr, 14.06. 9:20 14 3 - 160° S
Fr, 14.06. 9:10 17 3 - 150° SO
Fr, 14.06. 9:00 11 2 22 150° SO
Fr, 14.06. 8:30 14 3 22 160° S
Fr, 14.06. 8:00 13 3 20 160° S
Fr, 14.06. 7:30 13 3 19 170° S
Fr, 14.06. 7:00 11 2 22 200° S
Fr, 14.06. 6:30 9 2 13 190° S
Ortszeit Untergrenze Bedeckung Gattung
total tief tief mittel hoch
Fr, 14.06. 8:00 1800 m 8/8 8/8 - - -
Fr, 14.06. 2:00 2400 m 8/8 3/8 - - -
Do, 13.06. 20:00 6300 m 8/8 7/8 - - -
Do, 13.06. 14:00 1800 m 8/8 5/8 - - -
Do, 13.06. 8:00 3000 m 8/8 8/8 - - -
Do, 13.06. 2:00 3300 m 8/8 8/8 - - -
Mi, 12.06. 20:00 1470 m 8/8 8/8 - - -
Mi, 12.06. 14:00 1320 m 6/8 5/8 - - -
Ortszeit Bedeckungsgrad in Achtel und Wolkenuntergrenze
Fr, 14.06. 10:00 2(1470m) 8(1800m) 8(2400m)
Fr, 14.06. 9:50 2(1470m) 8(1800m) 8(2400m)
Fr, 14.06. 9:40 8
Fr, 14.06. 9:30 6(1500m) 8(2100m)
Fr, 14.06. 9:20 6(1500m) 8(2100m)
Fr, 14.06. 9:10 8
Fr, 14.06. 9:00 8(1800m) 8(2100m)
Fr, 14.06. 8:30 8(1500m)
Fr, 14.06. 8:00 8(1800m)
Fr, 14.06. 7:30 4(1500m) 8(1800m)
Fr, 14.06. 7:00 7(1800m) 8(2100m)
Fr, 14.06. 6:30 6(1800m) 8(2100m)
Ortszeit Luftdruck NN (hPa) Tendenz (hPa in 3 Std.)
Fr, 14.06. 8:00 1009 + 0,3
Fr, 14.06. 2:00 1011 - 1,5
Do, 13.06. 20:00 1014 - 1,7
Do, 13.06. 14:00 1017 - 1,5
Do, 13.06. 8:00 1019 - 0,2
Do, 13.06. 2:00 1020 + 0,3
Mi, 12.06. 20:00 1019 - 0,3
Mi, 12.06. 14:00 1019 - 0,4
Ortszeit Luftdruck NN (hPa) Tendenz (hPa in 3 Std.)
Fr, 14.06. 10:00 1009 - 1,2
Fr, 14.06. 9:50 1009 keine Meldung
Fr, 14.06. 9:40 1009 keine Meldung
Fr, 14.06. 9:30 1009 - 1,0
Fr, 14.06. 9:20 1009 keine Meldung
Fr, 14.06. 9:10 1009 keine Meldung
Fr, 14.06. 9:00 1009 - 0,8
Fr, 14.06. 8:30 1009 - 0,4
Fr, 14.06. 8:00 1009 + 0,3
Fr, 14.06. 7:30 1010 + 0,2
Fr, 14.06. 7:00 1010 0,0
Fr, 14.06. 6:30 1010 - 0,4
Ortszeit Schneehöhe (cm)
Fr, 14.06. 8:00 -
Fr, 14.06. 2:00 -
Do, 13.06. 20:00 -
Do, 13.06. 14:00 -
Do, 13.06. 8:00 -
Do, 13.06. 2:00 -
Mi, 12.06. 20:00 -
Mi, 12.06. 14:00 -
Ortszeit Schneehöhe (cm)
Fr, 14.06. 10:00 -
Fr, 14.06. 9:50 -
Fr, 14.06. 9:40 -
Fr, 14.06. 9:30 -
Fr, 14.06. 9:20 -
Fr, 14.06. 9:10 -
Fr, 14.06. 9:00 -
Fr, 14.06. 8:30 -
Fr, 14.06. 8:00 -
Fr, 14.06. 7:30 -
Fr, 14.06. 7:00 -
Fr, 14.06. 6:30 -
Link zu dieser Seite / Seite empfehlen

Das Wetter in ...